sensor_id;sensor_type;location;lat;lon;timestamp;P1;durP1;ratioP1;P2;durP2;ratioP2
37115;SDS011;23025;41.996;23.098;2023-12-28T00:02:18;48.58;;;46.78;;
37115;SDS011;23025;41.996;23.098;2023-12-28T00:04:44;40.22;;;38.63;;
37115;SDS011;23025;41.996;23.098;2023-12-28T00:07:10;47.85;;;45.80;;
37115;SDS011;23025;41.996;23.098;2023-12-28T00:09:37;51.53;;;49.70;;
37115;SDS011;23025;41.996;23.098;2023-12-28T00:12:05;45.00;;;43.40;;
37115;SDS011;23025;41.996;23.098;2023-12-28T00:14:31;49.42;;;47.67;;
37115;SDS011;23025;41.996;23.098;2023-12-28T00:16:57;57.20;;;54.78;;
37115;SDS011;23025;41.996;23.098;2023-12-28T00:19:24;48.28;;;46.38;;
37115;SDS011;23025;41.996;23.098;2023-12-28T00:21:50;48.80;;;46.90;;
37115;SDS011;23025;41.996;23.098;2023-12-28T00:24:19;50.35;;;48.22;;
37115;SDS011;23025;41.996;23.098;2023-12-28T00:26:46;46.20;;;44.47;;
37115;SDS011;23025;41.996;23.098;2023-12-28T00:29:13;57.40;;;55.38;;
37115;SDS011;23025;41.996;23.098;2023-12-28T00:31:40;52.28;;;50.40;;
37115;SDS011;23025;41.996;23.098;2023-12-28T00:34:06;51.42;;;49.58;;
37115;SDS011;23025;41.996;23.098;2023-12-28T00:36:33;46.15;;;44.42;;
37115;SDS011;23025;41.996;23.098;2023-12-28T00:38:59;30.90;;;29.73;;
37115;SDS011;23025;41.996;23.098;2023-12-28T00:41:26;46.33;;;44.55;;
37115;SDS011;23025;41.996;23.098;2023-12-28T00:43:52;50.00;;;48.28;;
37115;SDS011;23025;41.996;23.098;2023-12-28T00:46:20;46.30;;;44.58;;
37115;SDS011;23025;41.996;23.098;2023-12-28T00:48:46;48.00;;;46.30;;
37115;SDS011;23025;41.996;23.098;2023-12-28T00:51:13;51.35;;;49.55;;
37115;SDS011;23025;41.996;23.098;2023-12-28T00:53:40;45.45;;;43.63;;
37115;SDS011;23025;41.996;23.098;2023-12-28T00:56:06;54.05;;;52.20;;
37115;SDS011;23025;41.996;23.098;2023-12-28T00:58:33;46.35;;;44.60;;
37115;SDS011;23025;41.996;23.098;2023-12-28T01:00:59;49.72;;;47.85;;
37115;SDS011;23025;41.996;23.098;2023-12-28T01:03:27;45.70;;;43.95;;
37115;SDS011;23025;41.996;23.098;2023-12-28T01:05:53;54.90;;;52.85;;
37115;SDS011;23025;41.996;23.098;2023-12-28T01:08:20;30.40;;;29.17;;
37115;SDS011;23025;41.996;23.098;2023-12-28T01:10:46;45.47;;;43.88;;
37115;SDS011;23025;41.996;23.098;2023-12-28T01:13:13;49.50;;;47.30;;
37115;SDS011;23025;41.996;23.098;2023-12-28T01:15:39;49.45;;;47.53;;
37115;SDS011;23025;41.996;23.098;2023-12-28T01:18:06;48.25;;;46.35;;
37115;SDS011;23025;41.996;23.098;2023-12-28T01:20:34;38.67;;;37.17;;
37115;SDS011;23025;41.996;23.098;2023-12-28T01:23:00;42.42;;;40.85;;
37115;SDS011;23025;41.996;23.098;2023-12-28T01:25:27;44.22;;;42.13;;
37115;SDS011;23025;41.996;23.098;2023-12-28T01:27:53;41.42;;;39.88;;
37115;SDS011;23025;41.996;23.098;2023-12-28T01:30:20;27.75;;;26.63;;
37115;SDS011;23025;41.996;23.098;2023-12-28T01:32:46;47.63;;;45.83;;
37115;SDS011;23025;41.996;23.098;2023-12-28T01:35:13;51.08;;;48.85;;
37115;SDS011;23025;41.996;23.098;2023-12-28T01:37:41;48.33;;;46.65;;
37115;SDS011;23025;41.996;23.098;2023-12-28T01:40:07;51.28;;;49.05;;
37115;SDS011;23025;41.996;23.098;2023-12-28T01:42:34;43.08;;;41.50;;
37115;SDS011;23025;41.996;23.098;2023-12-28T01:45:00;49.45;;;47.42;;
37115;SDS011;23025;41.996;23.098;2023-12-28T01:47:27;49.72;;;47.75;;
37115;SDS011;23025;41.996;23.098;2023-12-28T01:49:55;51.92;;;50.05;;
37115;SDS011;23025;41.996;23.098;2023-12-28T01:52:22;50.45;;;48.63;;
37115;SDS011;23025;41.996;23.098;2023-12-28T01:54:50;41.70;;;40.00;;
37115;SDS011;23025;41.996;23.098;2023-12-28T01:57:16;48.58;;;46.80;;
37115;SDS011;23025;41.996;23.098;2023-12-28T01:59:43;47.08;;;45.25;;
37115;SDS011;23025;41.996;23.098;2023-12-28T02:02:10;45.53;;;43.83;;
37115;SDS011;23025;41.996;23.098;2023-12-28T02:04:36;47.38;;;45.70;;
37115;SDS011;23025;41.996;23.098;2023-12-28T02:07:03;53.97;;;52.05;;
37115;SDS011;23025;41.996;23.098;2023-12-28T02:09:30;47.70;;;46.00;;
37115;SDS011;23025;41.996;23.098;2023-12-28T02:11:58;47.35;;;45.72;;
37115;SDS011;23025;41.996;23.098;2023-12-28T02:14:24;47.70;;;45.90;;
37115;SDS011;23025;41.996;23.098;2023-12-28T02:16:53;51.38;;;49.47;;
37115;SDS011;23025;41.996;23.098;2023-12-28T02:19:24;42.50;;;40.88;;
37115;SDS011;23025;41.996;23.098;2023-12-28T02:21:52;41.25;;;39.80;;
37115;SDS011;23025;41.996;23.098;2023-12-28T02:24:20;52.17;;;50.35;;
37115;SDS011;23025;41.996;23.098;2023-12-28T02:26:48;48.45;;;46.65;;
37115;SDS011;23025;41.996;23.098;2023-12-28T02:29:14;44.58;;;42.92;;
37115;SDS011;23025;41.996;23.098;2023-12-28T02:31:42;38.30;;;36.70;;
37115;SDS011;23025;41.996;23.098;2023-12-28T02:34:12;54.45;;;52.58;;
37115;SDS011;23025;41.996;23.098;2023-12-28T02:36:43;48.65;;;46.95;;
37115;SDS011;23025;41.996;23.098;2023-12-28T02:39:10;44.15;;;41.97;;
37115;SDS011;23025;41.996;23.098;2023-12-28T02:41:37;46.28;;;44.47;;
37115;SDS011;23025;41.996;23.098;2023-12-28T02:44:04;44.45;;;42.90;;
37115;SDS011;23025;41.996;23.098;2023-12-28T02:46:31;43.92;;;42.25;;
37115;SDS011;23025;41.996;23.098;2023-12-28T02:48:57;36.35;;;34.85;;
37115;SDS011;23025;41.996;23.098;2023-12-28T02:51:24;47.88;;;46.15;;
37115;SDS011;23025;41.996;23.098;2023-12-28T02:53:51;47.00;;;45.30;;
37115;SDS011;23025;41.996;23.098;2023-12-28T02:56:17;43.03;;;41.47;;
37115;SDS011;23025;41.996;23.098;2023-12-28T02:58:44;57.58;;;55.55;;
37115;SDS011;23025;41.996;23.098;2023-12-28T03:01:11;43.78;;;42.20;;
37115;SDS011;23025;41.996;23.098;2023-12-28T03:03:38;57.60;;;55.60;;
37115;SDS011;23025;41.996;23.098;2023-12-28T03:06:04;58.67;;;56.65;;
37115;SDS011;23025;41.996;23.098;2023-12-28T03:08:31;49.22;;;47.53;;
37115;SDS011;23025;41.996;23.098;2023-12-28T03:10:58;53.00;;;51.08;;
37115;SDS011;23025;41.996;23.098;2023-12-28T03:13:24;51.28;;;49.45;;
37115;SDS011;23025;41.996;23.098;2023-12-28T03:15:51;33.28;;;31.98;;
37115;SDS011;23025;41.996;23.098;2023-12-28T03:18:18;50.92;;;49.13;;
37115;SDS011;23025;41.996;23.098;2023-12-28T03:20:45;35.08;;;33.83;;
37115;SDS011;23025;41.996;23.098;2023-12-28T03:23:11;48.75;;;46.65;;
37115;SDS011;23025;41.996;23.098;2023-12-28T03:25:38;51.75;;;49.85;;
37115;SDS011;23025;41.996;23.098;2023-12-28T03:28:05;59.20;;;57.03;;
37115;SDS011;23025;41.996;23.098;2023-12-28T03:30:31;39.90;;;38.42;;
37115;SDS011;23025;41.996;23.098;2023-12-28T03:32:58;30.88;;;29.55;;
37115;SDS011;23025;41.996;23.098;2023-12-28T03:35:25;42.55;;;40.78;;
37115;SDS011;23025;41.996;23.098;2023-12-28T03:37:52;48.22;;;46.38;;
37115;SDS011;23025;41.996;23.098;2023-12-28T03:40:18;51.88;;;50.03;;
37115;SDS011;23025;41.996;23.098;2023-12-28T03:42:45;43.00;;;41.50;;
37115;SDS011;23025;41.996;23.098;2023-12-28T03:45:11;43.33;;;41.75;;
37115;SDS011;23025;41.996;23.098;2023-12-28T03:47:38;41.80;;;40.28;;
37115;SDS011;23025;41.996;23.098;2023-12-28T03:50:05;40.33;;;38.90;;
37115;SDS011;23025;41.996;23.098;2023-12-28T03:52:33;47.47;;;45.78;;
37115;SDS011;23025;41.996;23.098;2023-12-28T03:54:59;40.15;;;38.55;;
37115;SDS011;23025;41.996;23.098;2023-12-28T03:57:26;40.67;;;39.15;;
37115;SDS011;23025;41.996;23.098;2023-12-28T03:59:52;54.75;;;52.58;;
37115;SDS011;23025;41.996;23.098;2023-12-28T04:02:20;49.38;;;45.90;;
37115;SDS011;23025;41.996;23.098;2023-12-28T04:04:46;37.55;;;36.17;;
37115;SDS011;23025;41.996;23.098;2023-12-28T04:07:13;44.97;;;43.08;;
37115;SDS011;23025;41.996;23.098;2023-12-28T04:09:42;23.20;;;22.13;;
37115;SDS011;23025;41.996;23.098;2023-12-28T04:12:09;43.00;;;41.35;;
37115;SDS011;23025;41.996;23.098;2023-12-28T04:14:35;22.05;;;21.17;;
37115;SDS011;23025;41.996;23.098;2023-12-28T04:17:02;42.08;;;40.40;;
37115;SDS011;23025;41.996;23.098;2023-12-28T04:19:28;43.28;;;41.58;;
37115;SDS011;23025;41.996;23.098;2023-12-28T04:21:55;39.67;;;38.20;;
37115;SDS011;23025;41.996;23.098;2023-12-28T04:24:22;55.25;;;53.28;;
37115;SDS011;23025;41.996;23.098;2023-12-28T04:26:49;38.92;;;37.28;;
37115;SDS011;23025;41.996;23.098;2023-12-28T04:29:16;37.80;;;36.40;;
37115;SDS011;23025;41.996;23.098;2023-12-28T04:31:42;41.25;;;39.70;;
37115;SDS011;23025;41.996;23.098;2023-12-28T04:34:09;33.42;;;31.25;;
37115;SDS011;23025;41.996;23.098;2023-12-28T04:36:39;48.05;;;46.25;;
37115;SDS011;23025;41.996;23.098;2023-12-28T04:39:05;48.95;;;47.17;;
37115;SDS011;23025;41.996;23.098;2023-12-28T04:41:32;43.65;;;42.00;;
37115;SDS011;23025;41.996;23.098;2023-12-28T04:44:00;48.45;;;46.55;;
37115;SDS011;23025;41.996;23.098;2023-12-28T04:46:26;36.58;;;35.28;;
37115;SDS011;23025;41.996;23.098;2023-12-28T04:48:52;37.55;;;36.03;;
37115;SDS011;23025;41.996;23.098;2023-12-28T04:51:19;47.80;;;45.97;;
37115;SDS011;23025;41.996;23.098;2023-12-28T04:53:45;46.13;;;44.50;;
37115;SDS011;23025;41.996;23.098;2023-12-28T04:56:12;44.53;;;42.70;;
37115;SDS011;23025;41.996;23.098;2023-12-28T04:58:38;40.45;;;39.00;;
37115;SDS011;23025;41.996;23.098;2023-12-28T05:01:06;44.47;;;42.67;;
37115;SDS011;23025;41.996;23.098;2023-12-28T05:03:33;51.83;;;49.83;;
37115;SDS011;23025;41.996;23.098;2023-12-28T05:06:01;56.72;;;54.70;;
37115;SDS011;23025;41.996;23.098;2023-12-28T05:08:27;54.90;;;52.78;;
37115;SDS011;23025;41.996;23.098;2023-12-28T05:10:54;49.05;;;47.00;;
37115;SDS011;23025;41.996;23.098;2023-12-28T05:13:20;48.67;;;46.88;;
37115;SDS011;23025;41.996;23.098;2023-12-28T05:15:47;43.75;;;41.90;;
37115;SDS011;23025;41.996;23.098;2023-12-28T05:18:14;40.00;;;38.60;;
37115;SDS011;23025;41.996;23.098;2023-12-28T05:20:41;44.40;;;42.83;;
37115;SDS011;23025;41.996;23.098;2023-12-28T05:23:07;45.45;;;43.85;;
37115;SDS011;23025;41.996;23.098;2023-12-28T05:25:34;46.75;;;45.10;;
37115;SDS011;23025;41.996;23.098;2023-12-28T05:28:00;47.72;;;45.97;;
37115;SDS011;23025;41.996;23.098;2023-12-28T05:30:27;44.13;;;42.58;;
37115;SDS011;23025;41.996;23.098;2023-12-28T05:32:53;45.70;;;43.92;;
37115;SDS011;23025;41.996;23.098;2023-12-28T05:35:21;50.58;;;48.83;;
37115;SDS011;23025;41.996;23.098;2023-12-28T05:37:48;52.58;;;50.38;;
37115;SDS011;23025;41.996;23.098;2023-12-28T05:40:14;47.97;;;46.25;;
37115;SDS011;23025;41.996;23.098;2023-12-28T05:42:41;43.15;;;40.83;;
37115;SDS011;23025;41.996;23.098;2023-12-28T05:45:08;40.70;;;39.10;;
37115;SDS011;23025;41.996;23.098;2023-12-28T05:47:34;49.15;;;47.28;;
37115;SDS011;23025;41.996;23.098;2023-12-28T05:50:01;40.80;;;39.28;;
37115;SDS011;23025;41.996;23.098;2023-12-28T05:52:29;45.08;;;43.40;;
37115;SDS011;23025;41.996;23.098;2023-12-28T05:54:56;44.17;;;42.47;;
37115;SDS011;23025;41.996;23.098;2023-12-28T05:57:22;42.05;;;39.97;;
37115;SDS011;23025;41.996;23.098;2023-12-28T05:59:50;44.15;;;42.15;;
37115;SDS011;23025;41.996;23.098;2023-12-28T06:02:16;51.10;;;48.78;;
37115;SDS011;23025;41.996;23.098;2023-12-28T06:04:43;46.17;;;44.53;;
37115;SDS011;23025;41.996;23.098;2023-12-28T06:07:09;44.95;;;43.15;;
37115;SDS011;23025;41.996;23.098;2023-12-28T06:09:37;48.17;;;46.45;;
37115;SDS011;23025;41.996;23.098;2023-12-28T06:12:04;55.20;;;53.05;;
37115;SDS011;23025;41.996;23.098;2023-12-28T06:14:30;51.50;;;49.50;;
37115;SDS011;23025;41.996;23.098;2023-12-28T06:16:57;43.00;;;40.22;;
37115;SDS011;23025;41.996;23.098;2023-12-28T06:19:23;58.08;;;55.83;;
37115;SDS011;23025;41.996;23.098;2023-12-28T06:21:50;55.80;;;53.50;;
37115;SDS011;23025;41.996;23.098;2023-12-28T06:24:16;66.93;;;63.10;;
37115;SDS011;23025;41.996;23.098;2023-12-28T06:26:44;58.88;;;56.78;;
37115;SDS011;23025;41.996;23.098;2023-12-28T06:29:11;59.30;;;57.03;;
37115;SDS011;23025;41.996;23.098;2023-12-28T06:31:37;55.65;;;53.55;;
37115;SDS011;23025;41.996;23.098;2023-12-28T06:34:04;56.38;;;54.22;;
37115;SDS011;23025;41.996;23.098;2023-12-28T06:36:31;60.60;;;58.05;;
37115;SDS011;23025;41.996;23.098;2023-12-28T06:38:57;52.35;;;50.30;;
37115;SDS011;23025;41.996;23.098;2023-12-28T06:41:24;56.38;;;54.28;;
37115;SDS011;23025;41.996;23.098;2023-12-28T06:43:52;52.28;;;49.90;;
37115;SDS011;23025;41.996;23.098;2023-12-28T06:46:18;33.20;;;31.80;;
37115;SDS011;23025;41.996;23.098;2023-12-28T06:48:45;57.75;;;55.08;;
37115;SDS011;23025;41.996;23.098;2023-12-28T06:51:15;67.28;;;64.72;;
37115;SDS011;23025;41.996;23.098;2023-12-28T06:53:42;66.53;;;63.67;;
37115;SDS011;23025;41.996;23.098;2023-12-28T06:56:09;53.38;;;51.42;;
37115;SDS011;23025;41.996;23.098;2023-12-28T06:58:35;66.25;;;63.50;;
37115;SDS011;23025;41.996;23.098;2023-12-28T07:01:04;67.20;;;64.30;;
37115;SDS011;23025;41.996;23.098;2023-12-28T07:03:31;68.00;;;65.40;;
37115;SDS011;23025;41.996;23.098;2023-12-28T07:05:58;66.15;;;63.53;;
37115;SDS011;23025;41.996;23.098;2023-12-28T07:08:24;58.30;;;55.42;;
37115;SDS011;23025;41.996;23.098;2023-12-28T07:10:51;69.68;;;66.45;;
37115;SDS011;23025;41.996;23.098;2023-12-28T07:13:17;68.63;;;66.03;;
37115;SDS011;23025;41.996;23.098;2023-12-28T07:15:44;62.35;;;59.97;;
37115;SDS011;23025;41.996;23.098;2023-12-28T07:18:11;60.25;;;57.58;;
37115;SDS011;23025;41.996;23.098;2023-12-28T07:20:38;63.53;;;61.22;;
37115;SDS011;23025;41.996;23.098;2023-12-28T07:23:05;70.25;;;66.93;;
37115;SDS011;23025;41.996;23.098;2023-12-28T07:25:32;72.88;;;69.38;;
37115;SDS011;23025;41.996;23.098;2023-12-28T07:27:58;71.75;;;68.90;;
37115;SDS011;23025;41.996;23.098;2023-12-28T07:30:25;64.00;;;61.40;;
37115;SDS011;23025;41.996;23.098;2023-12-28T07:32:51;68.68;;;66.05;;
37115;SDS011;23025;41.996;23.098;2023-12-28T07:35:19;65.32;;;62.63;;
37115;SDS011;23025;41.996;23.098;2023-12-28T07:37:47;74.30;;;71.65;;
37115;SDS011;23025;41.996;23.098;2023-12-28T07:40:15;68.30;;;65.82;;
37115;SDS011;23025;41.996;23.098;2023-12-28T07:42:41;70.78;;;68.10;;
37115;SDS011;23025;41.996;23.098;2023-12-28T07:45:08;43.33;;;41.40;;
37115;SDS011;23025;41.996;23.098;2023-12-28T07:47:34;58.42;;;55.97;;
37115;SDS011;23025;41.996;23.098;2023-12-28T07:50:01;71.20;;;68.28;;
37115;SDS011;23025;41.996;23.098;2023-12-28T07:52:29;64.60;;;61.85;;
37115;SDS011;23025;41.996;23.098;2023-12-28T07:54:55;73.07;;;69.97;;
37115;SDS011;23025;41.996;23.098;2023-12-28T07:57:23;43.22;;;41.15;;
37115;SDS011;23025;41.996;23.098;2023-12-28T07:59:50;72.75;;;69.88;;
37115;SDS011;23025;41.996;23.098;2023-12-28T08:02:16;73.05;;;70.30;;
37115;SDS011;23025;41.996;23.098;2023-12-28T08:04:43;75.85;;;73.32;;
37115;SDS011;23025;41.996;23.098;2023-12-28T08:07:09;65.88;;;63.22;;
37115;SDS011;23025;41.996;23.098;2023-12-28T08:09:37;71.28;;;68.72;;
37115;SDS011;23025;41.996;23.098;2023-12-28T08:12:04;69.28;;;66.35;;
37115;SDS011;23025;41.996;23.098;2023-12-28T08:14:30;77.97;;;75.03;;
37115;SDS011;23025;41.996;23.098;2023-12-28T08:16:57;75.68;;;72.78;;
37115;SDS011;23025;41.996;23.098;2023-12-28T08:19:23;57.42;;;55.25;;
37115;SDS011;23025;41.996;23.098;2023-12-28T08:21:50;75.32;;;72.20;;
37115;SDS011;23025;41.996;23.098;2023-12-28T08:24:16;72.82;;;70.18;;
37115;SDS011;23025;41.996;23.098;2023-12-28T08:26:44;82.95;;;79.95;;
37115;SDS011;23025;41.996;23.098;2023-12-28T08:29:10;73.15;;;69.95;;
37115;SDS011;23025;41.996;23.098;2023-12-28T08:31:37;74.68;;;71.40;;
37115;SDS011;23025;41.996;23.098;2023-12-28T08:34:03;70.75;;;67.80;;
37115;SDS011;23025;41.996;23.098;2023-12-28T08:36:30;80.13;;;76.07;;
37115;SDS011;23025;41.996;23.098;2023-12-28T08:38:56;84.78;;;81.43;;
37115;SDS011;23025;41.996;23.098;2023-12-28T08:41:23;82.63;;;79.47;;
37115;SDS011;23025;41.996;23.098;2023-12-28T08:43:51;80.57;;;77.60;;
37115;SDS011;23025;41.996;23.098;2023-12-28T08:46:19;80.03;;;77.25;;
37115;SDS011;23025;41.996;23.098;2023-12-28T08:48:45;84.78;;;81.40;;
37115;SDS011;23025;41.996;23.098;2023-12-28T08:51:12;79.47;;;76.22;;
37115;SDS011;23025;41.996;23.098;2023-12-28T08:53:39;78.15;;;75.40;;
37115;SDS011;23025;41.996;23.098;2023-12-28T08:56:12;78.03;;;74.90;;
37115;SDS011;23025;41.996;23.098;2023-12-28T08:58:39;87.38;;;84.05;;
37115;SDS011;23025;41.996;23.098;2023-12-28T09:01:07;83.75;;;80.45;;
37115;SDS011;23025;41.996;23.098;2023-12-28T09:03:33;82.82;;;78.60;;
37115;SDS011;23025;41.996;23.098;2023-12-28T09:05:59;92.40;;;88.47;;
37115;SDS011;23025;41.996;23.098;2023-12-28T09:08:26;78.80;;;75.22;;
37115;SDS011;23025;41.996;23.098;2023-12-28T09:10:52;87.10;;;83.18;;
37115;SDS011;23025;41.996;23.098;2023-12-28T09:13:19;96.78;;;92.95;;
37115;SDS011;23025;41.996;23.098;2023-12-28T09:15:46;86.78;;;83.35;;
37115;SDS011;23025;41.996;23.098;2023-12-28T09:18:13;80.35;;;76.93;;
37115;SDS011;23025;41.996;23.098;2023-12-28T09:20:40;88.07;;;84.30;;
37115;SDS011;23025;41.996;23.098;2023-12-28T09:23:06;89.40;;;85.20;;
37115;SDS011;23025;41.996;23.098;2023-12-28T09:25:34;90.93;;;86.68;;
37115;SDS011;23025;41.996;23.098;2023-12-28T09:28:01;91.72;;;87.85;;
37115;SDS011;23025;41.996;23.098;2023-12-28T09:30:27;95.07;;;91.13;;
37115;SDS011;23025;41.996;23.098;2023-12-28T09:32:54;105.28;;;100.35;;
37115;SDS011;23025;41.996;23.098;2023-12-28T09:35:22;65.28;;;61.58;;
37115;SDS011;23025;41.996;23.098;2023-12-28T09:37:50;108.82;;;104.18;;
37115;SDS011;23025;41.996;23.098;2023-12-28T09:40:16;98.03;;;94.30;;
37115;SDS011;23025;41.996;23.098;2023-12-28T09:42:45;91.07;;;87.05;;
37115;SDS011;23025;41.996;23.098;2023-12-28T09:45:14;106.38;;;101.32;;
37115;SDS011;23025;41.996;23.098;2023-12-28T09:47:41;117.18;;;112.18;;
37115;SDS011;23025;41.996;23.098;2023-12-28T09:50:09;105.40;;;100.60;;
37115;SDS011;23025;41.996;23.098;2023-12-28T09:52:37;92.30;;;88.43;;
37115;SDS011;23025;41.996;23.098;2023-12-28T09:55:04;107.45;;;102.88;;
37115;SDS011;23025;41.996;23.098;2023-12-28T09:57:30;64.18;;;59.97;;
37115;SDS011;23025;41.996;23.098;2023-12-28T09:59:57;97.35;;;92.50;;
37115;SDS011;23025;41.996;23.098;2023-12-28T10:02:24;105.95;;;101.43;;
37115;SDS011;23025;41.996;23.098;2023-12-28T10:04:50;100.68;;;95.40;;
37115;SDS011;23025;41.996;23.098;2023-12-28T10:07:16;108.20;;;103.57;;
37115;SDS011;23025;41.996;23.098;2023-12-28T10:09:44;114.55;;;109.53;;
37115;SDS011;23025;41.996;23.098;2023-12-28T10:12:11;110.13;;;104.90;;
37115;SDS011;23025;41.996;23.098;2023-12-28T10:14:37;102.65;;;97.88;;
37115;SDS011;23025;41.996;23.098;2023-12-28T10:17:04;117.40;;;112.68;;
37115;SDS011;23025;41.996;23.098;2023-12-28T10:19:31;110.72;;;106.13;;
37115;SDS011;23025;41.996;23.098;2023-12-28T10:21:58;104.40;;;99.25;;
37115;SDS011;23025;41.996;23.098;2023-12-28T10:24:24;114.65;;;109.88;;
37115;SDS011;23025;41.996;23.098;2023-12-28T10:26:53;127.70;;;121.95;;
37115;SDS011;23025;41.996;23.098;2023-12-28T10:29:20;114.97;;;109.65;;
37115;SDS011;23025;41.996;23.098;2023-12-28T10:31:46;116.03;;;110.68;;
37115;SDS011;23025;41.996;23.098;2023-12-28T10:34:15;126.50;;;120.70;;
37115;SDS011;23025;41.996;23.098;2023-12-28T10:36:42;115.78;;;109.70;;
37115;SDS011;23025;41.996;23.098;2023-12-28T10:39:08;106.32;;;101.07;;
37115;SDS011;23025;41.996;23.098;2023-12-28T10:41:36;117.70;;;112.78;;
37115;SDS011;23025;41.996;23.098;2023-12-28T10:44:05;122.50;;;117.65;;
37115;SDS011;23025;41.996;23.098;2023-12-28T10:46:33;117.25;;;111.65;;
37115;SDS011;23025;41.996;23.098;2023-12-28T10:49:03;109.80;;;105.45;;
37115;SDS011;23025;41.996;23.098;2023-12-28T10:51:31;108.22;;;103.55;;
37115;SDS011;23025;41.996;23.098;2023-12-28T10:54:02;121.25;;;116.72;;
37115;SDS011;23025;41.996;23.098;2023-12-28T10:56:33;112.38;;;107.78;;
37115;SDS011;23025;41.996;23.098;2023-12-28T10:59:05;94.05;;;90.05;;
37115;SDS011;23025;41.996;23.098;2023-12-28T11:01:37;109.47;;;105.60;;
37115;SDS011;23025;41.996;23.098;2023-12-28T11:04:06;110.40;;;106.75;;
37115;SDS011;23025;41.996;23.098;2023-12-28T11:06:34;110.93;;;107.00;;
37115;SDS011;23025;41.996;23.098;2023-12-28T11:09:01;107.82;;;103.18;;
37115;SDS011;23025;41.996;23.098;2023-12-28T11:11:30;109.82;;;106.03;;
37115;SDS011;23025;41.996;23.098;2023-12-28T11:13:57;108.75;;;104.18;;
37115;SDS011;23025;41.996;23.098;2023-12-28T11:16:26;124.07;;;119.65;;
37115;SDS011;23025;41.996;23.098;2023-12-28T11:18:53;108.43;;;104.60;;
37115;SDS011;23025;41.996;23.098;2023-12-28T11:21:20;126.00;;;121.50;;
37115;SDS011;23025;41.996;23.098;2023-12-28T11:23:48;130.18;;;125.25;;
37115;SDS011;23025;41.996;23.098;2023-12-28T11:26:15;127.38;;;123.15;;
37115;SDS011;23025;41.996;23.098;2023-12-28T11:28:42;119.93;;;115.82;;
37115;SDS011;23025;41.996;23.098;2023-12-28T11:31:09;124.32;;;119.65;;
37115;SDS011;23025;41.996;23.098;2023-12-28T11:33:42;110.55;;;106.45;;
37115;SDS011;23025;41.996;23.098;2023-12-28T11:36:10;127.82;;;123.47;;
37115;SDS011;23025;41.996;23.098;2023-12-28T11:38:37;82.28;;;79.15;;
37115;SDS011;23025;41.996;23.098;2023-12-28T11:41:05;139.52;;;134.82;;
37115;SDS011;23025;41.996;23.098;2023-12-28T11:43:34;96.68;;;92.75;;
37115;SDS011;23025;41.996;23.098;2023-12-28T11:46:02;120.60;;;116.20;;
37115;SDS011;23025;41.996;23.098;2023-12-28T11:48:30;135.45;;;130.60;;
37115;SDS011;23025;41.996;23.098;2023-12-28T11:50:58;138.00;;;133.50;;
37115;SDS011;23025;41.996;23.098;2023-12-28T11:53:26;148.80;;;143.95;;
37115;SDS011;23025;41.996;23.098;2023-12-28T11:55:59;139.75;;;134.73;;
37115;SDS011;23025;41.996;23.098;2023-12-28T11:58:25;138.95;;;133.65;;
37115;SDS011;23025;41.996;23.098;2023-12-28T12:00:52;152.50;;;147.15;;
37115;SDS011;23025;41.996;23.098;2023-12-28T12:03:19;165.95;;;159.85;;
37115;SDS011;23025;41.996;23.098;2023-12-28T12:05:45;142.02;;;136.70;;
37115;SDS011;23025;41.996;23.098;2023-12-28T12:08:12;151.65;;;145.88;;
37115;SDS011;23025;41.996;23.098;2023-12-28T12:10:41;156.52;;;151.07;;
37115;SDS011;23025;41.996;23.098;2023-12-28T12:13:07;156.18;;;150.45;;
37115;SDS011;23025;41.996;23.098;2023-12-28T12:15:34;147.30;;;142.23;;
37115;SDS011;23025;41.996;23.098;2023-12-28T12:18:00;151.30;;;145.98;;
37115;SDS011;23025;41.996;23.098;2023-12-28T12:20:27;164.85;;;158.85;;
37115;SDS011;23025;41.996;23.098;2023-12-28T12:22:57;165.32;;;159.75;;
37115;SDS011;23025;41.996;23.098;2023-12-28T12:25:23;172.98;;;167.13;;
37115;SDS011;23025;41.996;23.098;2023-12-28T12:27:51;166.10;;;160.07;;
37115;SDS011;23025;41.996;23.098;2023-12-28T12:30:18;172.75;;;166.68;;
37115;SDS011;23025;41.996;23.098;2023-12-28T12:32:45;158.75;;;153.40;;
37115;SDS011;23025;41.996;23.098;2023-12-28T12:35:11;157.50;;;151.70;;
37115;SDS011;23025;41.996;23.098;2023-12-28T12:37:40;168.75;;;162.07;;
37115;SDS011;23025;41.996;23.098;2023-12-28T12:40:07;167.65;;;161.93;;
37115;SDS011;23025;41.996;23.098;2023-12-28T12:42:33;169.02;;;163.18;;
37115;SDS011;23025;41.996;23.098;2023-12-28T12:45:02;173.27;;;167.32;;
37115;SDS011;23025;41.996;23.098;2023-12-28T12:47:31;172.43;;;166.95;;
37115;SDS011;23025;41.996;23.098;2023-12-28T12:49:58;165.25;;;159.30;;
37115;SDS011;23025;41.996;23.098;2023-12-28T12:52:25;169.98;;;164.00;;
37115;SDS011;23025;41.996;23.098;2023-12-28T12:54:55;171.48;;;165.18;;
37115;SDS011;23025;41.996;23.098;2023-12-28T12:57:22;165.80;;;159.50;;
37115;SDS011;23025;41.996;23.098;2023-12-28T12:59:48;163.75;;;157.65;;
37115;SDS011;23025;41.996;23.098;2023-12-28T13:02:17;182.27;;;176.05;;
37115;SDS011;23025;41.996;23.098;2023-12-28T13:04:44;184.20;;;177.60;;
37115;SDS011;23025;41.996;23.098;2023-12-28T13:07:10;185.07;;;178.32;;
37115;SDS011;23025;41.996;23.098;2023-12-28T13:09:37;188.63;;;181.77;;
37115;SDS011;23025;41.996;23.098;2023-12-28T13:12:03;196.43;;;189.77;;
37115;SDS011;23025;41.996;23.098;2023-12-28T13:14:30;209.13;;;202.55;;
37115;SDS011;23025;41.996;23.098;2023-12-28T13:16:56;214.95;;;207.48;;
37115;SDS011;23025;41.996;23.098;2023-12-28T13:19:24;196.75;;;190.20;;
37115;SDS011;23025;41.996;23.098;2023-12-28T13:21:51;183.55;;;176.48;;
37115;SDS011;23025;41.996;23.098;2023-12-28T13:24:17;213.25;;;205.57;;
37115;SDS011;23025;41.996;23.098;2023-12-28T13:26:44;195.68;;;188.70;;
37115;SDS011;23025;41.996;23.098;2023-12-28T13:29:10;195.82;;;188.90;;
37115;SDS011;23025;41.996;23.098;2023-12-28T13:31:37;191.80;;;185.07;;
37115;SDS011;23025;41.996;23.098;2023-12-28T13:34:04;137.73;;;132.43;;
37115;SDS011;23025;41.996;23.098;2023-12-28T13:36:32;216.75;;;209.68;;
37115;SDS011;23025;41.996;23.098;2023-12-28T13:38:59;202.43;;;195.30;;
37115;SDS011;23025;41.996;23.098;2023-12-28T13:41:25;219.23;;;211.95;;
37115;SDS011;23025;41.996;23.098;2023-12-28T13:43:53;216.82;;;209.50;;
37115;SDS011;23025;41.996;23.098;2023-12-28T13:46:25;201.32;;;194.20;;
37115;SDS011;23025;41.996;23.098;2023-12-28T13:48:52;220.68;;;213.57;;
37115;SDS011;23025;41.996;23.098;2023-12-28T13:51:18;201.02;;;194.27;;
37115;SDS011;23025;41.996;23.098;2023-12-28T13:53:46;143.00;;;137.52;;
37115;SDS011;23025;41.996;23.098;2023-12-28T13:56:12;224.25;;;216.63;;
37115;SDS011;23025;41.996;23.098;2023-12-28T13:58:39;155.48;;;149.82;;
37115;SDS011;23025;41.996;23.098;2023-12-28T14:01:06;210.25;;;203.75;;